Pagrindinis puslapis
METAR-TAF:

METAR-TAF

Oro uostai :

Karakasas, Venesuela

platuma: 10-36N, ilguma: 066-59W, Aukštis: 43 m

Dabartinis oras

Ataskaita buvo paskelbta 50 minutes, ne 23:00 UTC
Vėjas 1 kt iš Vakarų
Temperatūra 26°C
Drėgmė 79%
Slėgis 1010 hPa
Matomumas 10 km arba daugiau
Mažai debesys ne aukštis 1600 ft

METAR: SVMI 222300Z 27001KT 9999 FEW016 26/22 Q1010

Laikas: 19:50 (23:50 UTC)

Prognozė

Ataskaita buvo paskelbta 7 valandos ir 50 minutes, ne 16:00 UTC
Prognozė galioja nuo 22 metu 18 UTC su 23 metu 18 UTC
Vėjas 6 kt iš Rytų
Matomumas 10 km arba daugiau
Mažai debesys ne aukštis 1600 ft
Laikinai
nuo 22 metu 18 UTC su 22 metu 22 UTC
Vėjas 6 kt iš Rytų/Šiaurės Rytų
Matomumas: 9000 m
Su prošvaistėmis ne aukštis 1600 ft
dulksna

TAF: SVMI 221600Z 2218/2318 08006KT 9999 FEW016 TX32/18Z TN24/08Z TEMPO 2218/2222 07006KT 9000 DZ BKN016

Orai ataskaitas ir orų prognozės (METAR, TAF).

turimą stotys yra geltonos ir raudonos taškus žemėlapyje.

Perkelti pele per norėdami pamatyti stoties vardą.

Tada spustelėkite, norėdami matyti oro stebėjimo ir prognozės.

Norėdami pakeisti žemėlapį: spustelėkite ant žalios mygtukų su juodo kryžiaus žemyn,; žalią mygtuką su brūkšneliu, jei norite nutolinti; arba žalių rodyklių gretimoms žemėlapius.


METAR-TAF: